sensor_id;sensor_type;location;lat;lon;timestamp;temperature;humidity
54960;DHT22;40860;51.710;8.736;2022-11-12T00:02:53;5.40;97.10
54960;DHT22;40860;51.710;8.736;2022-11-12T00:07:15;5.30;97.20
54960;DHT22;40860;51.710;8.736;2022-11-12T00:11:36;5.30;97.20
54960;DHT22;40860;51.710;8.736;2022-11-12T00:15:59;5.20;97.30
54960;DHT22;40860;51.710;8.736;2022-11-12T00:20:20;5.10;97.50
54960;DHT22;40860;51.710;8.736;2022-11-12T00:24:44;5.10;97.70
54960;DHT22;40860;51.710;8.736;2022-11-12T00:29:08;5.20;97.70
54960;DHT22;40860;51.710;8.736;2022-11-12T00:33:30;5.20;97.60
54960;DHT22;40860;51.710;8.736;2022-11-12T00:37:53;5.10;97.60
54960;DHT22;40860;51.710;8.736;2022-11-12T00:42:15;5.10;97.50
54960;DHT22;40860;51.710;8.736;2022-11-12T00:46:37;5.10;97.40
54960;DHT22;40860;51.710;8.736;2022-11-12T00:51:04;5.00;97.50
54960;DHT22;40860;51.710;8.736;2022-11-12T00:55:26;5.00;97.60
54960;DHT22;40860;51.710;8.736;2022-11-12T00:59:47;5.00;97.70
54960;DHT22;40860;51.710;8.736;2022-11-12T01:04:09;5.00;97.60
54960;DHT22;40860;51.710;8.736;2022-11-12T01:08:32;4.90;97.60
54960;DHT22;40860;51.710;8.736;2022-11-12T01:12:54;4.90;97.90
54960;DHT22;40860;51.710;8.736;2022-11-12T01:17:15;4.80;97.80
54960;DHT22;40860;51.710;8.736;2022-11-12T01:21:38;4.80;97.80
54960;DHT22;40860;51.710;8.736;2022-11-12T01:26:04;4.80;97.80
54960;DHT22;40860;51.710;8.736;2022-11-12T01:30:26;4.70;97.80
54960;DHT22;40860;51.710;8.736;2022-11-12T01:34:49;4.70;97.90
54960;DHT22;40860;51.710;8.736;2022-11-12T01:39:11;4.60;97.90
54960;DHT22;40860;51.710;8.736;2022-11-12T01:43:34;4.60;98.00
54960;DHT22;40860;51.710;8.736;2022-11-12T01:47:57;4.60;98.30
54960;DHT22;40860;51.710;8.736;2022-11-12T01:52:21;4.60;98.10
54960;DHT22;40860;51.710;8.736;2022-11-12T01:56:45;4.60;98.10
54960;DHT22;40860;51.710;8.736;2022-11-12T02:01:08;4.60;98.00
54960;DHT22;40860;51.710;8.736;2022-11-12T02:05:30;4.60;97.90
54960;DHT22;40860;51.710;8.736;2022-11-12T02:09:53;4.50;98.20
54960;DHT22;40860;51.710;8.736;2022-11-12T02:14:15;4.50;98.10
54960;DHT22;40860;51.710;8.736;2022-11-12T02:18:37;4.50;98.10
54960;DHT22;40860;51.710;8.736;2022-11-12T02:23:00;4.50;98.20
54960;DHT22;40860;51.710;8.736;2022-11-12T02:27:22;4.40;98.30
54960;DHT22;40860;51.710;8.736;2022-11-12T02:31:44;4.40;98.20
54960;DHT22;40860;51.710;8.736;2022-11-12T02:36:06;4.40;98.10
54960;DHT22;40860;51.710;8.736;2022-11-12T02:40:29;4.30;98.20
54960;DHT22;40860;51.710;8.736;2022-11-12T02:44:50;4.20;98.60
54960;DHT22;40860;51.710;8.736;2022-11-12T02:49:12;4.20;98.50
54960;DHT22;40860;51.710;8.736;2022-11-12T02:53:33;4.20;98.70
54960;DHT22;40860;51.710;8.736;2022-11-12T02:57:57;4.30;98.50
54960;DHT22;40860;51.710;8.736;2022-11-12T03:02:19;4.20;98.40
54960;DHT22;40860;51.710;8.736;2022-11-12T03:06:41;4.20;98.40
54960;DHT22;40860;51.710;8.736;2022-11-12T03:11:06;4.20;98.30
54960;DHT22;40860;51.710;8.736;2022-11-12T03:15:29;4.10;98.30
54960;DHT22;40860;51.710;8.736;2022-11-12T03:19:51;4.10;98.20
54960;DHT22;40860;51.710;8.736;2022-11-12T03:24:12;4.10;98.40
54960;DHT22;40860;51.710;8.736;2022-11-12T03:28:34;4.10;98.50
54960;DHT22;40860;51.710;8.736;2022-11-12T03:32:57;4.00;98.40
54960;DHT22;40860;51.710;8.736;2022-11-12T03:37:18;4.00;98.40
54960;DHT22;40860;51.710;8.736;2022-11-12T03:41:39;4.00;98.30
54960;DHT22;40860;51.710;8.736;2022-11-12T03:46:01;4.00;98.60
54960;DHT22;40860;51.710;8.736;2022-11-12T03:50:25;4.00;98.50
54960;DHT22;40860;51.710;8.736;2022-11-12T03:54:47;3.90;98.60
54960;DHT22;40860;51.710;8.736;2022-11-12T03:59:08;3.90;98.70
54960;DHT22;40860;51.710;8.736;2022-11-12T04:03:29;3.80;98.60
54960;DHT22;40860;51.710;8.736;2022-11-12T04:07:57;3.80;98.60
54960;DHT22;40860;51.710;8.736;2022-11-12T04:12:36;3.80;98.50
54960;DHT22;40860;51.710;8.736;2022-11-12T04:17:15;3.80;98.60
54960;DHT22;40860;51.710;8.736;2022-11-12T04:21:57;3.80;98.40
54960;DHT22;40860;51.710;8.736;2022-11-12T04:26:20;3.70;98.50
54960;DHT22;40860;51.710;8.736;2022-11-12T04:30:44;3.60;98.80
54960;DHT22;40860;51.710;8.736;2022-11-12T04:35:07;3.60;99.00
54960;DHT22;40860;51.710;8.736;2022-11-12T04:39:29;3.60;98.80
54960;DHT22;40860;51.710;8.736;2022-11-12T04:43:52;3.60;98.80
54960;DHT22;40860;51.710;8.736;2022-11-12T04:48:31;3.60;98.80
54960;DHT22;40860;51.710;8.736;2022-11-12T04:52:52;3.60;98.50
54960;DHT22;40860;51.710;8.736;2022-11-12T04:57:14;3.60;98.60
54960;DHT22;40860;51.710;8.736;2022-11-12T05:01:36;3.50;98.60
54960;DHT22;40860;51.710;8.736;2022-11-12T05:06:02;3.50;98.60
54960;DHT22;40860;51.710;8.736;2022-11-12T05:10:24;3.50;98.50
54960;DHT22;40860;51.710;8.736;2022-11-12T05:14:45;3.50;98.70
54960;DHT22;40860;51.710;8.736;2022-11-12T05:19:08;3.50;98.70
54960;DHT22;40860;51.710;8.736;2022-11-12T05:23:30;3.40;98.80
54960;DHT22;40860;51.710;8.736;2022-11-12T05:27:51;3.40;98.70
54960;DHT22;40860;51.710;8.736;2022-11-12T05:32:14;3.40;98.60
54960;DHT22;40860;51.710;8.736;2022-11-12T05:36:38;3.40;98.70
54960;DHT22;40860;51.710;8.736;2022-11-12T05:41:00;3.40;98.70
54960;DHT22;40860;51.710;8.736;2022-11-12T05:45:21;3.40;98.90
54960;DHT22;40860;51.710;8.736;2022-11-12T05:49:42;3.40;98.80
54960;DHT22;40860;51.710;8.736;2022-11-12T05:54:05;3.40;98.80
54960;DHT22;40860;51.710;8.736;2022-11-12T05:58:27;3.40;98.80
54960;DHT22;40860;51.710;8.736;2022-11-12T06:02:48;3.40;98.80
54960;DHT22;40860;51.710;8.736;2022-11-12T06:07:10;3.30;99.00
54960;DHT22;40860;51.710;8.736;2022-11-12T06:11:33;3.30;98.80
54960;DHT22;40860;51.710;8.736;2022-11-12T06:15:54;3.30;98.80
54960;DHT22;40860;51.710;8.736;2022-11-12T06:20:16;3.30;99.00
54960;DHT22;40860;51.710;8.736;2022-11-12T06:24:38;3.40;99.10
54960;DHT22;40860;51.710;8.736;2022-11-12T06:29:00;3.40;99.00
54960;DHT22;40860;51.710;8.736;2022-11-12T06:33:22;3.40;99.00
54960;DHT22;40860;51.710;8.736;2022-11-12T06:37:45;3.40;99.00
54960;DHT22;40860;51.710;8.736;2022-11-12T06:42:06;3.50;99.20
54960;DHT22;40860;51.710;8.736;2022-11-12T06:46:29;3.60;99.40
54960;DHT22;40860;51.710;8.736;2022-11-12T06:50:51;3.60;99.40
54960;DHT22;40860;51.710;8.736;2022-11-12T06:55:13;3.70;99.40
54960;DHT22;40860;51.710;8.736;2022-11-12T06:59:34;3.80;99.40
54960;DHT22;40860;51.710;8.736;2022-11-12T07:03:57;3.80;99.40
54960;DHT22;40860;51.710;8.736;2022-11-12T07:08:18;3.80;99.40
54960;DHT22;40860;51.710;8.736;2022-11-12T07:12:40;3.90;99.50
54960;DHT22;40860;51.710;8.736;2022-11-12T07:17:01;4.00;99.60
54960;DHT22;40860;51.710;8.736;2022-11-12T07:21:24;4.10;99.70
54960;DHT22;40860;51.710;8.736;2022-11-12T07:25:46;4.10;99.60
54960;DHT22;40860;51.710;8.736;2022-11-12T07:30:08;4.30;99.60
54960;DHT22;40860;51.710;8.736;2022-11-12T07:34:30;4.30;99.60
54960;DHT22;40860;51.710;8.736;2022-11-12T07:38:53;4.40;99.60
54960;DHT22;40860;51.710;8.736;2022-11-12T07:43:15;4.50;99.60
54960;DHT22;40860;51.710;8.736;2022-11-12T07:47:36;4.60;99.50
54960;DHT22;40860;51.710;8.736;2022-11-12T07:51:57;4.60;99.50
54960;DHT22;40860;51.710;8.736;2022-11-12T07:56:22;4.60;99.50
54960;DHT22;40860;51.710;8.736;2022-11-12T08:00:44;4.70;99.80
54960;DHT22;40860;51.710;8.736;2022-11-12T08:05:06;4.70;99.60
54960;DHT22;40860;51.710;8.736;2022-11-12T08:09:37;4.70;99.50
54960;DHT22;40860;51.710;8.736;2022-11-12T08:14:00;4.70;99.40
54960;DHT22;40860;51.710;8.736;2022-11-12T08:18:21;4.70;99.40
54960;DHT22;40860;51.710;8.736;2022-11-12T08:22:43;4.80;99.40
54960;DHT22;40860;51.710;8.736;2022-11-12T08:27:08;4.80;99.40
54960;DHT22;40860;51.710;8.736;2022-11-12T08:31:31;4.90;99.40
54960;DHT22;40860;51.710;8.736;2022-11-12T08:35:52;4.90;99.30
54960;DHT22;40860;51.710;8.736;2022-11-12T08:40:14;5.00;99.70
54960;DHT22;40860;51.710;8.736;2022-11-12T08:44:35;5.10;99.60
54960;DHT22;40860;51.710;8.736;2022-11-12T08:48:58;5.20;99.40
54960;DHT22;40860;51.710;8.736;2022-11-12T08:53:21;5.40;99.50
54960;DHT22;40860;51.710;8.736;2022-11-12T08:57:43;5.50;99.50
54960;DHT22;40860;51.710;8.736;2022-11-12T09:02:10;5.60;99.30
54960;DHT22;40860;51.710;8.736;2022-11-12T09:06:32;5.80;99.50
54960;DHT22;40860;51.710;8.736;2022-11-12T09:10:56;6.00;99.40
54960;DHT22;40860;51.710;8.736;2022-11-12T09:15:18;6.10;99.40
54960;DHT22;40860;51.710;8.736;2022-11-12T09:19:57;6.40;99.60
54960;DHT22;40860;51.710;8.736;2022-11-12T09:24:19;6.60;99.30
54960;DHT22;40860;51.710;8.736;2022-11-12T09:28:41;6.90;99.20
54960;DHT22;40860;51.710;8.736;2022-11-12T09:33:03;7.20;98.90
54960;DHT22;40860;51.710;8.736;2022-11-12T09:37:24;7.50;98.80
54960;DHT22;40860;51.710;8.736;2022-11-12T09:41:47;7.70;98.50
54960;DHT22;40860;51.710;8.736;2022-11-12T09:46:19;8.00;98.00
54960;DHT22;40860;51.710;8.736;2022-11-12T09:50:55;8.20;97.70
54960;DHT22;40860;51.710;8.736;2022-11-12T09:55:21;8.40;97.20
54960;DHT22;40860;51.710;8.736;2022-11-12T09:59:46;8.60;96.70
54960;DHT22;40860;51.710;8.736;2022-11-12T10:08:58;9.00;96.30
54960;DHT22;40860;51.710;8.736;2022-11-12T10:13:32;9.20;96.60
54960;DHT22;40860;51.710;8.736;2022-11-12T10:18:03;9.40;95.90
54960;DHT22;40860;51.710;8.736;2022-11-12T10:22:37;9.60;95.10
54960;DHT22;40860;51.710;8.736;2022-11-12T10:27:01;9.80;95.00
54960;DHT22;40860;51.710;8.736;2022-11-12T10:31:23;10.00;94.90
54960;DHT22;40860;51.710;8.736;2022-11-12T10:35:46;10.20;94.30
54960;DHT22;40860;51.710;8.736;2022-11-12T10:40:31;10.40;94.60
54960;DHT22;40860;51.710;8.736;2022-11-12T10:45:17;10.60;94.20
54960;DHT22;40860;51.710;8.736;2022-11-12T10:49:39;10.80;94.10
54960;DHT22;40860;51.710;8.736;2022-11-12T10:54:19;11.00;93.40
54960;DHT22;40860;51.710;8.736;2022-11-12T10:58:41;11.30;93.20
54960;DHT22;40860;51.710;8.736;2022-11-12T11:03:05;11.50;93.20
54960;DHT22;40860;51.710;8.736;2022-11-12T11:07:27;11.70;92.80
54960;DHT22;40860;51.710;8.736;2022-11-12T11:11:51;11.90;91.80
54960;DHT22;40860;51.710;8.736;2022-11-12T11:16:15;12.10;91.10
54960;DHT22;40860;51.710;8.736;2022-11-12T11:20:42;12.30;91.30
54960;DHT22;40860;51.710;8.736;2022-11-12T11:25:16;12.30;90.90
54960;DHT22;40860;51.710;8.736;2022-11-12T11:29:50;12.40;90.50
54960;DHT22;40860;51.710;8.736;2022-11-12T11:34:25;12.60;90.50
54960;DHT22;40860;51.710;8.736;2022-11-12T11:38:57;12.80;89.60
54960;DHT22;40860;51.710;8.736;2022-11-12T11:43:37;13.00;89.60
54960;DHT22;40860;51.710;8.736;2022-11-12T11:48:11;13.20;88.90
54960;DHT22;40860;51.710;8.736;2022-11-12T11:52:45;13.50;86.40
54960;DHT22;40860;51.710;8.736;2022-11-12T11:57:11;13.70;84.50
54960;DHT22;40860;51.710;8.736;2022-11-12T12:01:50;14.00;81.50
54960;DHT22;40860;51.710;8.736;2022-11-12T12:06:21;14.30;79.20
54960;DHT22;40860;51.710;8.736;2022-11-12T12:10:51;14.50;78.20
54960;DHT22;40860;51.710;8.736;2022-11-12T12:15:48;14.60;77.30
54960;DHT22;40860;51.710;8.736;2022-11-12T12:20:20;14.70;76.60
54960;DHT22;40860;51.710;8.736;2022-11-12T12:24:50;14.80;76.00
54960;DHT22;40860;51.710;8.736;2022-11-12T12:29:17;15.00;75.10
54960;DHT22;40860;51.710;8.736;2022-11-12T12:33:46;15.10;74.80
54960;DHT22;40860;51.710;8.736;2022-11-12T12:38:13;15.10;74.40
54960;DHT22;40860;51.710;8.736;2022-11-12T12:42:43;15.20;73.90
54960;DHT22;40860;51.710;8.736;2022-11-12T12:47:07;15.20;73.90
54960;DHT22;40860;51.710;8.736;2022-11-12T12:51:32;15.30;73.20
54960;DHT22;40860;51.710;8.736;2022-11-12T12:55:55;15.30;74.00
54960;DHT22;40860;51.710;8.736;2022-11-12T13:00:28;15.30;74.10
54960;DHT22;40860;51.710;8.736;2022-11-12T13:04:53;15.40;73.70
54960;DHT22;40860;51.710;8.736;2022-11-12T13:09:23;15.40;73.90
54960;DHT22;40860;51.710;8.736;2022-11-12T13:13:46;15.50;74.80
54960;DHT22;40860;51.710;8.736;2022-11-12T13:18:10;15.50;75.50
54960;DHT22;40860;51.710;8.736;2022-11-12T13:22:54;15.50;76.60
54960;DHT22;40860;51.710;8.736;2022-11-12T13:32:33;15.50;77.80
54960;DHT22;40860;51.710;8.736;2022-11-12T13:36:59;15.50;79.30
54960;DHT22;40860;51.710;8.736;2022-11-12T13:41:22;15.40;82.00
54960;DHT22;40860;51.710;8.736;2022-11-12T13:46:13;15.40;81.40
54960;DHT22;40860;51.710;8.736;2022-11-12T13:50:37;15.30;82.50
54960;DHT22;40860;51.710;8.736;2022-11-12T13:55:03;15.20;83.50
54960;DHT22;40860;51.710;8.736;2022-11-12T13:59:25;15.20;83.10
54960;DHT22;40860;51.710;8.736;2022-11-12T14:03:49;15.10;83.50
54960;DHT22;40860;51.710;8.736;2022-11-12T14:08:31;15.10;84.00
54960;DHT22;40860;51.710;8.736;2022-11-12T14:13:15;15.00;85.40
54960;DHT22;40860;51.710;8.736;2022-11-12T14:17:45;14.80;86.30
54960;DHT22;40860;51.710;8.736;2022-11-12T14:22:15;14.80;87.70
54960;DHT22;40860;51.710;8.736;2022-11-12T14:26:38;14.60;89.10
54960;DHT22;40860;51.710;8.736;2022-11-12T14:31:03;14.50;90.60
54960;DHT22;40860;51.710;8.736;2022-11-12T14:35:31;14.40;90.80
54960;DHT22;40860;51.710;8.736;2022-11-12T14:39:53;14.20;91.50
54960;DHT22;40860;51.710;8.736;2022-11-12T14:44:18;14.10;92.00
54960;DHT22;40860;51.710;8.736;2022-11-12T14:48:47;14.00;92.00
54960;DHT22;40860;51.710;8.736;2022-11-12T14:53:15;13.90;92.00
54960;DHT22;40860;51.710;8.736;2022-11-12T14:57:44;13.80;92.30
54960;DHT22;40860;51.710;8.736;2022-11-12T15:02:09;13.70;92.50
54960;DHT22;40860;51.710;8.736;2022-11-12T15:06:55;13.60;92.60
54960;DHT22;40860;51.710;8.736;2022-11-12T15:11:22;13.50;93.00
54960;DHT22;40860;51.710;8.736;2022-11-12T15:15:50;13.40;93.30
54960;DHT22;40860;51.710;8.736;2022-11-12T15:20:14;13.20;93.50
54960;DHT22;40860;51.710;8.736;2022-11-12T15:24:38;13.10;93.70
54960;DHT22;40860;51.710;8.736;2022-11-12T15:29:14;12.80;94.00
54960;DHT22;40860;51.710;8.736;2022-11-12T15:33:39;12.70;94.10
54960;DHT22;40860;51.710;8.736;2022-11-12T15:38:02;12.50;94.30
54960;DHT22;40860;51.710;8.736;2022-11-12T15:42:32;12.20;94.70
54960;DHT22;40860;51.710;8.736;2022-11-12T15:46:54;11.90;94.90
54960;DHT22;40860;51.710;8.736;2022-11-12T15:51:18;11.80;95.50
54960;DHT22;40860;51.710;8.736;2022-11-12T15:55:39;11.60;95.70
54960;DHT22;40860;51.710;8.736;2022-11-12T16:00:05;11.50;95.80
54960;DHT22;40860;51.710;8.736;2022-11-12T16:04:28;11.40;95.90
54960;DHT22;40860;51.710;8.736;2022-11-12T16:08:49;11.30;96.20
54960;DHT22;40860;51.710;8.736;2022-11-12T16:13:14;11.20;95.90
54960;DHT22;40860;51.710;8.736;2022-11-12T16:17:37;11.00;96.00
54960;DHT22;40860;51.710;8.736;2022-11-12T16:21:59;10.80;96.30
54960;DHT22;40860;51.710;8.736;2022-11-12T16:26:24;10.70;96.50
54960;DHT22;40860;51.710;8.736;2022-11-12T16:30:47;10.60;96.40
54960;DHT22;40860;51.710;8.736;2022-11-12T16:35:11;10.50;96.40
54960;DHT22;40860;51.710;8.736;2022-11-12T16:39:32;10.40;96.40
54960;DHT22;40860;51.710;8.736;2022-11-12T16:43:53;10.30;96.40
54960;DHT22;40860;51.710;8.736;2022-11-12T16:48:17;10.20;96.40
54960;DHT22;40860;51.710;8.736;2022-11-12T16:52:41;10.10;96.30
54960;DHT22;40860;51.710;8.736;2022-11-12T16:57:03;10.00;96.60
54960;DHT22;40860;51.710;8.736;2022-11-12T17:01:26;9.90;96.60
54960;DHT22;40860;51.710;8.736;2022-11-12T17:05:50;9.70;96.70
54960;DHT22;40860;51.710;8.736;2022-11-12T17:10:14;9.60;97.10
54960;DHT22;40860;51.710;8.736;2022-11-12T17:14:36;9.50;97.20
54960;DHT22;40860;51.710;8.736;2022-11-12T17:18:58;9.40;97.10
54960;DHT22;40860;51.710;8.736;2022-11-12T17:23:20;9.40;97.40
54960;DHT22;40860;51.710;8.736;2022-11-12T17:27:43;9.20;97.40
54960;DHT22;40860;51.710;8.736;2022-11-12T17:32:04;9.20;97.20
54960;DHT22;40860;51.710;8.736;2022-11-12T17:36:26;9.10;97.50
54960;DHT22;40860;51.710;8.736;2022-11-12T17:40:53;9.00;97.60
54960;DHT22;40860;51.710;8.736;2022-11-12T17:45:16;8.90;97.50
54960;DHT22;40860;51.710;8.736;2022-11-12T17:49:38;8.80;97.60
54960;DHT22;40860;51.710;8.736;2022-11-12T17:53:59;8.70;97.70
54960;DHT22;40860;51.710;8.736;2022-11-12T17:58:21;8.60;97.80
54960;DHT22;40860;51.710;8.736;2022-11-12T18:02:44;8.60;97.90
54960;DHT22;40860;51.710;8.736;2022-11-12T18:07:05;8.50;98.10
54960;DHT22;40860;51.710;8.736;2022-11-12T18:11:28;8.50;98.00
54960;DHT22;40860;51.710;8.736;2022-11-12T18:15:50;8.40;98.00
54960;DHT22;40860;51.710;8.736;2022-11-12T18:20:13;8.30;98.30
54960;DHT22;40860;51.710;8.736;2022-11-12T18:24:37;8.30;98.40
54960;DHT22;40860;51.710;8.736;2022-11-12T18:28:59;8.30;98.30
54960;DHT22;40860;51.710;8.736;2022-11-12T18:33:21;8.30;98.50
54960;DHT22;40860;51.710;8.736;2022-11-12T18:37:43;8.20;98.60
54960;DHT22;40860;51.710;8.736;2022-11-12T18:42:05;8.20;98.60
54960;DHT22;40860;51.710;8.736;2022-11-12T18:46:26;8.20;98.70
54960;DHT22;40860;51.710;8.736;2022-11-12T18:50:47;8.30;98.60
54960;DHT22;40860;51.710;8.736;2022-11-12T18:55:10;8.30;98.50
54960;DHT22;40860;51.710;8.736;2022-11-12T18:59:32;8.30;98.40
54960;DHT22;40860;51.710;8.736;2022-11-12T19:03:55;8.30;98.30
54960;DHT22;40860;51.710;8.736;2022-11-12T19:08:17;8.20;98.20
54960;DHT22;40860;51.710;8.736;2022-11-12T19:12:40;8.10;98.10
54960;DHT22;40860;51.710;8.736;2022-11-12T19:17:02;8.00;98.10
54960;DHT22;40860;51.710;8.736;2022-11-12T19:21:25;7.90;98.20
54960;DHT22;40860;51.710;8.736;2022-11-12T19:25:46;7.80;98.20
54960;DHT22;40860;51.710;8.736;2022-11-12T19:30:10;7.80;98.30
54960;DHT22;40860;51.710;8.736;2022-11-12T19:34:32;7.80;98.10
54960;DHT22;40860;51.710;8.736;2022-11-12T19:38:55;7.90;98.00
54960;DHT22;40860;51.710;8.736;2022-11-12T19:43:17;7.90;97.80
54960;DHT22;40860;51.710;8.736;2022-11-12T19:47:40;7.90;97.60
54960;DHT22;40860;51.710;8.736;2022-11-12T19:52:01;7.90;97.50
54960;DHT22;40860;51.710;8.736;2022-11-12T19:56:23;7.70;97.50
54960;DHT22;40860;51.710;8.736;2022-11-12T20:00:44;7.60;97.60
54960;DHT22;40860;51.710;8.736;2022-11-12T20:05:07;7.50;98.00
54960;DHT22;40860;51.710;8.736;2022-11-12T20:09:29;7.50;97.60
54960;DHT22;40860;51.710;8.736;2022-11-12T20:13:51;7.40;97.70
54960;DHT22;40860;51.710;8.736;2022-11-12T20:18:13;7.30;97.80
54960;DHT22;40860;51.710;8.736;2022-11-12T20:22:36;7.20;98.20
54960;DHT22;40860;51.710;8.736;2022-11-12T20:26:58;7.20;97.90
54960;DHT22;40860;51.710;8.736;2022-11-12T20:31:20;7.10;97.90
54960;DHT22;40860;51.710;8.736;2022-11-12T20:35:42;7.10;97.90
54960;DHT22;40860;51.710;8.736;2022-11-12T20:40:07;7.00;98.00
54960;DHT22;40860;51.710;8.736;2022-11-12T20:44:29;6.90;98.00
54960;DHT22;40860;51.710;8.736;2022-11-12T20:48:50;6.90;98.20
54960;DHT22;40860;51.710;8.736;2022-11-12T20:53:13;6.80;98.20
54960;DHT22;40860;51.710;8.736;2022-11-12T20:57:35;6.80;98.20
54960;DHT22;40860;51.710;8.736;2022-11-12T21:01:56;6.80;98.30
54960;DHT22;40860;51.710;8.736;2022-11-12T21:06:22;6.80;98.30
54960;DHT22;40860;51.710;8.736;2022-11-12T21:10:47;6.80;98.40
54960;DHT22;40860;51.710;8.736;2022-11-12T21:15:11;6.80;98.30
54960;DHT22;40860;51.710;8.736;2022-11-12T21:19:32;6.90;98.30
54960;DHT22;40860;51.710;8.736;2022-11-12T21:23:54;6.80;98.30
54960;DHT22;40860;51.710;8.736;2022-11-12T21:28:23;6.80;98.30
54960;DHT22;40860;51.710;8.736;2022-11-12T21:32:47;6.80;98.30
54960;DHT22;40860;51.710;8.736;2022-11-12T21:37:08;6.80;98.30
54960;DHT22;40860;51.710;8.736;2022-11-12T21:41:30;6.70;98.30
54960;DHT22;40860;51.710;8.736;2022-11-12T21:45:52;6.70;98.30
54960;DHT22;40860;51.710;8.736;2022-11-12T21:50:15;6.80;98.20
54960;DHT22;40860;51.710;8.736;2022-11-12T21:54:36;6.80;98.30
54960;DHT22;40860;51.710;8.736;2022-11-12T21:58:58;6.90;98.20
54960;DHT22;40860;51.710;8.736;2022-11-12T22:03:20;6.90;98.00
54960;DHT22;40860;51.710;8.736;2022-11-12T22:07:43;7.00;97.90
54960;DHT22;40860;51.710;8.736;2022-11-12T22:12:05;6.90;97.80
54960;DHT22;40860;51.710;8.736;2022-11-12T22:16:27;6.90;97.80
54960;DHT22;40860;51.710;8.736;2022-11-12T22:20:55;6.90;97.90
54960;DHT22;40860;51.710;8.736;2022-11-12T22:25:18;6.90;97.80
54960;DHT22;40860;51.710;8.736;2022-11-12T22:29:39;6.90;97.80
54960;DHT22;40860;51.710;8.736;2022-11-12T22:34:01;6.80;97.80
54960;DHT22;40860;51.710;8.736;2022-11-12T22:38:23;6.90;97.80
54960;DHT22;40860;51.710;8.736;2022-11-12T22:42:47;6.90;97.80
54960;DHT22;40860;51.710;8.736;2022-11-12T22:47:08;6.80;97.70
54960;DHT22;40860;51.710;8.736;2022-11-12T22:51:31;6.80;97.70
54960;DHT22;40860;51.710;8.736;2022-11-12T22:55:53;6.80;97.70
54960;DHT22;40860;51.710;8.736;2022-11-12T23:00:18;6.70;97.80
54960;DHT22;40860;51.710;8.736;2022-11-12T23:04:48;6.60;98.00
54960;DHT22;40860;51.710;8.736;2022-11-12T23:09:13;6.60;98.20
54960;DHT22;40860;51.710;8.736;2022-11-12T23:13:35;6.60;98.00
54960;DHT22;40860;51.710;8.736;2022-11-12T23:17:58;6.50;98.10
54960;DHT22;40860;51.710;8.736;2022-11-12T23:22:19;6.50;98.10
54960;DHT22;40860;51.710;8.736;2022-11-12T23:26:41;6.40;98.20
54960;DHT22;40860;51.710;8.736;2022-11-12T23:31:04;6.40;98.30
54960;DHT22;40860;51.710;8.736;2022-11-12T23:35:27;6.30;98.30
54960;DHT22;40860;51.710;8.736;2022-11-12T23:39:48;6.30;98.30
54960;DHT22;40860;51.710;8.736;2022-11-12T23:44:09;6.30;98.40
54960;DHT22;40860;51.710;8.736;2022-11-12T23:48:31;6.30;98.30
54960;DHT22;40860;51.710;8.736;2022-11-12T23:52:53;6.30;98.30
54960;DHT22;40860;51.710;8.736;2022-11-12T23:57:15;6.20;98.40
